| time (UTC) | temp F | wind direction | speed MPH | gust MPH | rain 1hr in | rain 24hr in | rain mn in | humidity % | barometer mb |
| 20260504140919 | 69 | 176 | 3.0 | 8.0 | 0.00 | 0.00 | 0.00 | 58 | 999.7 |
| 20260504130417 | 57 | 48 | 2.0 | 4.0 | 0.00 | 0.00 | 0.00 | 73 | 1000.4 |
| 20260504110403 | 44 | 0 | 0.0 | 2.0 | 0.00 | 0.00 | 0.00 | 99 | 1001.0 |
| 20260504100358 | 44 | 0 | 0.0 | 2.0 | 0.00 | 0.00 | 0.00 | 98 | 1001.5 |
| 20260504081842 | 46 | 0 | 0.0 | 2.0 | 0.00 | 0.00 | 0.00 | 95 | 1002.6 |
| 20260504081342 | 45 | 225 | 0.0 | 2.0 | 0.00 | 0.00 | 0.00 | 95 | 1002.7 |
| 20260504080342 | 45 | 341 | 0.0 | 1.0 | 0.00 | 0.00 | 0.00 | 95 | 1002.8 |
| 20260504070336 | 47 | 262 | 0.0 | 1.0 | 0.00 | 0.00 | 0.00 | 92 | 1003.5 |
| 20260504050327 | 50 | 234 | 1.0 | 3.0 | 0.00 | 0.00 | 0.00 | 84 | 1004.5 |
| 20260504045826 | 50 | 0 | 0.0 | 2.0 | 0.00 | 0.00 | 0.00 | 84 | 1004.6 |
| 20260504045326 | 51 | 0 | 0.0 | 3.0 | 0.00 | 0.00 | 0.00 | 85 | 1004.6 |
| 20260504044324 | 51 | 228 | 2.0 | 3.0 | 0.00 | 0.00 | 0.00 | 83 | 1004.6 |
| 20260504043824 | 51 | 4 | 2.0 | 4.0 | 0.00 | 0.00 | 0.00 | 83 | 1004.6 |
| 20260504043324 | 51 | 52 | 1.0 | 4.0 | 0.00 | 0.00 | 0.00 | 82 | 1004.7 |
| 20260504042824 | 51 | 0 | 0.0 | 2.0 | 0.00 | 0.00 | 0.00 | 82 | 1004.7 |
| 20260504042323 | 51 | 0 | 0.0 | 1.0 | 0.00 | 0.00 | 0.00 | 81 | 1004.8 |
| 20260504041824 | 51 | 0 | 0.0 | 2.0 | 0.00 | 0.00 | 0.00 | 81 | 1004.8 |
| 20260504041325 | 52 | 0 | 0.0 | 2.0 | 0.00 | 0.00 | 0.00 | 80 | 1004.9 |
| 20260504040824 | 52 | 0 | 0.0 | 2.0 | 0.00 | 0.00 | 0.00 | 79 | 1005.0 |
| 20260504040324 | 52 | 0 | 0.0 | 3.0 | 0.00 | 0.00 | 0.00 | 78 | 1005.0 |
| 20260504035824 | 53 | 259 | 1.0 | 3.0 | 0.00 | 0.00 | 0.00 | 77 | 1005.1 |
| 20260504034322 | 53 | 112 | 1.0 | 3.0 | 0.00 | 0.00 | 0.00 | 76 | 1005.3 |
| 20260504033822 | 54 | 148 | 1.0 | 3.0 | 0.00 | 0.00 | 0.00 | 77 | 1005.3 |
| 20260504033322 | 54 | 217 | 1.0 | 2.0 | 0.00 | 0.00 | 0.00 | 76 | 1005.4 |
| 20260504032822 | 54 | 0 | 1.0 | 3.0 | 0.00 | 0.00 | 0.00 | 76 | 1005.4 |
| 20260504032322 | 55 | 325 | 1.0 | 3.0 | 0.00 | 0.00 | 0.00 | 76 | 1005.5 |
| 20260504031822 | 55 | 93 | 1.0 | 3.0 | 0.00 | 0.00 | 0.00 | 74 | 1005.5 |
| 20260504031322 | 55 | 275 | 1.0 | 3.0 | 0.00 | 0.00 | 0.00 | 73 | 1005.5 |
| 20260504030823 | 55 | 222 | 0.0 | 1.0 | 0.00 | 0.00 | 0.00 | 72 | 1005.5 |
| 20260504030323 | 56 | 137 | 1.0 | 1.0 | 0.00 | 0.00 | 0.00 | 72 | 1005.5 |
| 20260504025819 | 56 | 44 | 1.0 | 2.0 | 0.00 | 0.00 | 0.00 | 71 | 1005.4 |
| 20260504025320 | 56 | 47 | 1.0 | 2.0 | 0.00 | 0.00 | 0.00 | 71 | 1005.4 |
| 20260504024816 | 56 | 47 | 2.0 | 5.0 | 0.00 | 0.00 | 0.00 | 71 | 1005.5 |
| 20260504024316 | 57 | 224 | 3.0 | 6.0 | 0.00 | 0.00 | 0.00 | 70 | 1005.5 |
| 20260504023816 | 57 | 232 | 4.0 | 6.0 | 0.00 | 0.00 | 0.00 | 71 | 1005.5 |
| 20260504023314 | 58 | 230 | 4.0 | 6.0 | 0.00 | 0.00 | 0.00 | 68 | 1005.4 |
| 20260504022814 | 58 | 221 | 4.0 | 6.0 | 0.00 | 0.00 | 0.00 | 68 | 1005.3 |
| 20260504021814 | 59 | 238 | 3.0 | 6.0 | 0.00 | 0.00 | 0.00 | 67 | 1005.3 |
| 20260504021312 | 59 | 226 | 3.0 | 6.0 | 0.00 | 0.00 | 0.00 | 65 | 1005.3 |
| 20260504020812 | 59 | 224 | 4.0 | 6.0 | 0.00 | 0.00 | 0.00 | 65 | 1005.3 |
| 20260504020312 | 59 | 222 | 3.0 | 6.0 | 0.00 | 0.00 | 0.00 | 64 | 1005.3 |
| 20260504015811 | 59 | 225 | 3.0 | 9.0 | 0.00 | 0.00 | 0.00 | 65 | 1005.3 |
| 20260504015312 | 60 | 225 | 5.0 | 9.0 | 0.00 | 0.00 | 0.00 | 66 | 1005.3 |
| 20260504014812 | 60 | 231 | 6.0 | 10.0 | 0.00 | 0.00 | 0.00 | 66 | 1005.3 |
| 20260504014309 | 61 | 238 | 6.0 | 10.0 | 0.00 | 0.00 | 0.00 | 65 | 1005.3 |
| 20260504013808 | 62 | 241 | 5.0 | 10.0 | 0.00 | 0.00 | 0.00 | 65 | 1005.2 |
| 20260504013306 | 62 | 251 | 4.0 | 7.0 | 0.00 | 0.00 | 0.00 | 63 | 1005.2 |
| 20260504012806 | 64 | 244 | 3.0 | 6.0 | 0.00 | 0.00 | 0.00 | 59 | 1005.2 |
| 20260504012306 | 64 | 237 | 2.0 | 6.0 | 0.00 | 0.00 | 0.00 | 56 | 1005.2 |
| 20260504011806 | 65 | 236 | 1.0 | 4.0 | 0.00 | 0.00 | 0.00 | 52 | 1005.2 |
| 20260504011304 | 66 | 160 | 1.0 | 3.0 | 0.00 | 0.00 | 0.00 | 49 | 1005.1 |
| 20260504010800 | 67 | 201 | 0.0 | 3.0 | 0.00 | 0.00 | 0.00 | 47 | 1005.1 |
| 20260504010300 | 68 | 218 | 1.0 | 3.0 | 0.00 | 0.00 | 0.00 | 45 | 1005.1 |
| 20260504005800 | 69 | 182 | 1.0 | 2.0 | 0.00 | 0.00 | 0.00 | 43 | 1005.1 |
| 20260504005300 | 69 | 189 | 1.0 | 2.0 | 0.00 | 0.00 | 0.00 | 43 | 1005.1 |
| 20260504004800 | 69 | 0 | 1.0 | 3.0 | 0.00 | 0.00 | 0.00 | 42 | 1005.1 |
| 20260504004300 | 70 | 231 | 1.0 | 3.0 | 0.00 | 0.00 | 0.00 | 41 | 1005.1 |
| 20260504003801 | 71 | 257 | 1.0 | 2.0 | 0.00 | 0.00 | 0.00 | 41 | 1005.1 |
| 20260504003300 | 71 | 249 | 1.0 | 2.0 | 0.00 | 0.00 | 0.00 | 40 | 1005.1 |
| 20260504002758 | 71 | 264 | 1.0 | 3.0 | 0.00 | 0.00 | 0.00 | 39 | 1005.2 |
| 20260504002258 | 72 | 226 | 1.0 | 3.0 | 0.00 | 0.00 | 0.00 | 38 | 1005.2 |
| 20260504001258 | 73 | 172 | 2.0 | 4.0 | 0.00 | 0.00 | 0.00 | 37 | 1005.2 |
| 20260504000758 | 73 | 236 | 2.0 | 4.0 | 0.00 | 0.00 | 0.00 | 37 | 1005.1 |
| 20260504000258 | 73 | 309 | 2.0 | 4.0 | 0.00 | 0.00 | 0.00 | 37 | 1005.2 |
| 20260503235758 | 73 | 256 | 2.0 | 4.0 | 0.00 | 0.00 | 0.00 | 37 | 1005.1 |
| 20260503235258 | 73 | 232 | 2.0 | 3.0 | 0.00 | 0.00 | 0.00 | 38 | 1005.1 |
| 20260503234758 | 73 | 261 | 2.0 | 3.0 | 0.00 | 0.00 | 0.00 | 37 | 1005.1 |
| 20260503233758 | 73 | 276 | 2.0 | 6.0 | 0.00 | 0.00 | 0.00 | 35 | 1005.0 |
| 20260503233258 | 74 | 273 | 3.0 | 6.0 | 0.00 | 0.00 | 0.00 | 34 | 1005.0 |
| 20260503232758 | 74 | 321 | 3.0 | 6.0 | 0.00 | 0.00 | 0.00 | 34 | 1005.1 |
| 20260503232259 | 74 | 290 | 2.0 | 6.0 | 0.00 | 0.00 | 0.00 | 34 | 1005.1 |
| 20260503231759 | 74 | 278 | 2.0 | 6.0 | 0.00 | 0.00 | 0.00 | 35 | 1005.1 |
| 20260503231300 | 74 | 302 | 4.0 | 10.0 | 0.00 | 0.00 | 0.00 | 34 | 1005.1 |
| 20260503230757 | 74 | 291 | 4.0 | 10.0 | 0.00 | 0.00 | 0.00 | 34 | 1005.0 |
| 20260503225253 | 74 | 304 | 4.0 | 9.0 | 0.00 | 0.00 | 0.00 | 35 | 1005.1 |
| 20260503224753 | 74 | 295 | 4.0 | 10.0 | 0.00 | 0.00 | 0.00 | 35 | 1005.2 |
| 20260503223253 | 73 | 291 | 3.0 | 7.0 | 0.00 | 0.00 | 0.00 | 38 | 1005.1 |
| 20260503222753 | 73 | 259 | 3.0 | 7.0 | 0.00 | 0.00 | 0.00 | 39 | 1005.2 |
| 20260503221753 | 73 | 235 | 3.0 | 8.0 | 0.00 | 0.00 | 0.00 | 39 | 1005.2 |
| 20260503221253 | 74 | 245 | 3.0 | 8.0 | 0.00 | 0.00 | 0.00 | 39 | 1005.2 |
| 20260503220753 | 74 | 304 | 3.0 | 8.0 | 0.00 | 0.00 | 0.00 | 39 | 1005.3 |
| 20260503220251 | 74 | 247 | 3.0 | 6.0 | 0.00 | 0.00 | 0.00 | 38 | 1005.2 |
| 20260503215751 | 74 | 289 | 4.0 | 7.0 | 0.00 | 0.00 | 0.00 | 38 | 1005.3 |
| 20260503215247 | 74 | 146 | 3.0 | 7.0 | 0.00 | 0.00 | 0.00 | 37 | 1005.2 |
| 20260503214747 | 74 | 278 | 3.0 | 9.0 | 0.00 | 0.00 | 0.00 | 39 | 1005.2 |
| 20260503214248 | 73 | 277 | 3.0 | 9.0 | 0.00 | 0.00 | 0.00 | 39 | 1005.3 |
| 20260503213748 | 73 | 300 | 3.0 | 9.0 | 0.00 | 0.00 | 0.00 | 39 | 1005.3 |
| 20260503213248 | 73 | 233 | 4.0 | 9.0 | 0.00 | 0.00 | 0.00 | 39 | 1005.4 |
| 20260503212748 | 74 | 296 | 4.0 | 9.0 | 0.00 | 0.00 | 0.00 | 38 | 1005.5 |
| 20260503211748 | 74 | 304 | 4.0 | 10.0 | 0.00 | 0.00 | 0.00 | 38 | 1005.6 |
| 20260503211248 | 74 | 271 | 4.0 | 10.0 | 0.00 | 0.00 | 0.00 | 38 | 1005.6 |
| 20260503210748 | 73 | 222 | 2.0 | 7.0 | 0.00 | 0.00 | 0.00 | 38 | 1005.6 |
| 20260503210249 | 72 | 299 | 3.0 | 8.0 | 0.00 | 0.00 | 0.00 | 41 | 1005.7 |
| 20260503205749 | 72 | 295 | 4.0 | 8.0 | 0.00 | 0.00 | 0.00 | 40 | 1005.8 |
| 20260503205249 | 72 | 292 | 2.0 | 6.0 | 0.00 | 0.00 | 0.00 | 42 | 1005.8 |
| 20260503204749 | 72 | 235 | 3.0 | 7.0 | 0.00 | 0.00 | 0.00 | 42 | 1005.8 |
| 20260503204243 | 72 | 251 | 3.0 | 10.0 | 0.00 | 0.00 | 0.00 | 41 | 1005.9 |
| 20260503203242 | 71 | 289 | 3.0 | 6.0 | 0.00 | 0.00 | 0.00 | 42 | 1006.1 |
| 20260503202244 | 71 | 241 | 3.0 | 6.0 | 0.00 | 0.00 | 0.00 | 44 | 1006.0 |
| 20260503201744 | 71 | 282 | 3.0 | 8.0 | 0.00 | 0.00 | 0.00 | 44 | 1006.2 |
| 20260503201244 | 70 | 277 | 4.0 | 8.0 | 0.00 | 0.00 | 0.00 | 45 | 1006.3 |
| 20260503200744 | 70 | 271 | 3.0 | 5.0 | 0.00 | 0.00 | 0.00 | 45 | 1006.2 |
| 20260503195744 | 70 | 264 | 4.0 | 8.0 | 0.00 | 0.00 | 0.00 | 46 | 1006.3 |
| 20260503195245 | 70 | 149 | 4.0 | 11.0 | 0.00 | 0.00 | 0.00 | 46 | 1006.4 |
| 20260503194745 | 70 | 307 | 4.0 | 11.0 | 0.00 | 0.00 | 0.00 | 45 | 1006.3 |
| 20260503194243 | 70 | 235 | 4.0 | 11.0 | 0.00 | 0.00 | 0.00 | 47 | 1006.6 |
| 20260503193743 | 69 | 290 | 3.0 | 11.0 | 0.00 | 0.00 | 0.00 | 47 | 1006.5 |
| 20260503192741 | 68 | 123 | 3.0 | 9.0 | 0.00 | 0.00 | 0.00 | 50 | 1006.6 |
| 20260503192238 | 68 | 320 | 3.0 | 9.0 | 0.00 | 0.00 | 0.00 | 50 | 1006.5 |
| 20260503191738 | 68 | 61 | 3.0 | 9.0 | 0.00 | 0.00 | 0.00 | 50 | 1006.5 |
| 20260503191238 | 68 | 259 | 3.0 | 6.0 | 0.00 | 0.00 | 0.00 | 50 | 1006.6 |
| 20260503190739 | 68 | 316 | 3.0 | 7.0 | 0.00 | 0.00 | 0.00 | 51 | 1006.7 |
| 20260503185738 | 68 | 293 | 4.0 | 11.0 | 0.00 | 0.00 | 0.00 | 50 | 1006.8 |
| 20260503184739 | 67 | 223 | 4.0 | 8.0 | 0.00 | 0.00 | 0.00 | 52 | 1006.6 |
| 20260503184238 | 67 | 219 | 3.0 | 4.0 | 0.00 | 0.00 | 0.00 | 53 | 1006.2 |
| 20260503183236 | 66 | 207 | 3.0 | 5.0 | 0.00 | 0.00 | 0.00 | 52 | 1006.2 |
| 20260503182732 | 66 | 221 | 3.0 | 5.0 | 0.00 | 0.00 | 0.00 | 52 | 1006.2 |
| 20260503182233 | 66 | 224 | 2.0 | 4.0 | 0.00 | 0.00 | 0.00 | 52 | 1007.0 |
| 20260503181730 | 66 | 222 | 3.0 | 4.0 | 0.00 | 0.00 | 0.00 | 52 | 1007.0 |
| 20260503181230 | 65 | 222 | 3.0 | 6.0 | 0.00 | 0.00 | 0.00 | 52 | 1007.4 |
| 20260503180727 | 65 | 237 | 4.0 | 7.0 | 0.00 | 0.00 | 0.00 | 53 | 1007.0 |
| 20260503180227 | 65 | 223 | 4.0 | 7.0 | 0.00 | 0.00 | 0.00 | 52 | 1007.1 |
| 20260503175727 | 65 | 225 | 4.0 | 7.0 | 0.00 | 0.00 | 0.00 | 52 | 1007.3 |
| 20260503174727 | 65 | 222 | 4.0 | 7.0 | 0.00 | 0.00 | 0.00 | 51 | 1007.0 |
| 20260503174227 | 66 | 228 | 4.0 | 7.0 | 0.00 | 0.00 | 0.00 | 51 | 1007.4 |
| 20260503173227 | 66 | 207 | 4.0 | 8.0 | 0.00 | 0.00 | 0.00 | 50 | 1007.3 |
| 20260503172727 | 66 | 227 | 4.0 | 7.0 | 0.00 | 0.00 | 0.00 | 50 | 1007.2 |
| 20260503172227 | 65 | 223 | 4.0 | 7.0 | 0.00 | 0.00 | 0.00 | 50 | 1007.3 |
| 20260503171221 | 66 | 224 | 4.0 | 11.0 | 0.00 | 0.00 | 0.00 | 50 | 1007.5 |
| 20260503170722 | 66 | 222 | 4.0 | 13.0 | 0.00 | 0.00 | 0.00 | 49 | 1007.5 |
| 20260503170222 | 65 | 223 | 5.0 | 25.0 | 0.00 | 0.00 | 0.00 | 50 | 1007.5 |
| 20260503150717 | 61 | 225 | 13.0 | 34.0 | 0.00 | 0.00 | 0.00 | 51 | 1008.1 |
| 20260503150217 | 61 | 218 | 9.0 | 32.0 | 0.00 | 0.00 | 0.00 | 51 | 1008.1 |